Puerto Banus, Marbella

>

This is an optional block (switch it off / on) in the settings - file ($SITE['banners'] = false;)

You can display ads, any other important text or photo’s using text / html or PHP code.

You can place one or more at the top and or bottom and it can all be different for content / size .



Meteosat more information blitzortung!


Radar lluvias  rain snow radar


Visita nuestra red de sitios de meteo:

Documentation for the template used

MeteoibericaRed estaciones Meteorologicas

MeteoclimaticRed estaciones Meteorologicas



Sin Advertencias climatologicas .En este momento tenemos Nivel Verde.    No hay Alarmas

Pagina Historial Weather Underground texto

Diario Resumen Diciembre 26, 2017 Unidades:  Métrico    impérial   Tanto
« Anterior Dia
Siguiente Dia »
Diario Semana Mensual Anual Personalizada
  Maxima: Minima: Media:
Temperatura: -17.8 °C -11.6 °C -9.7 °C
Punto de rocío: -17.8 °C -14.5 °C -12.3 °C
Humedad: Humidity % 51 % 75 %
Velocidad del Viento: 0 km/h 0 km/h 24 km/h
Ráfagas de viento: 0 km/h - -
Viento:- - West
Pression baro: 0 hPa 34544 hPa -
Précipitaciones: 38.1 mm    
Historical Graphs
 
 
Datos de tabla para Diciembre 26, 2017
Tiempo Temperatura Punto de rocío Pression baro Viento Velocidad del Viento Ráfagas de viento Humedad Las precipitaciones Rate ( Hora )
-17.8 °C -17.8 °C 0 hPa Calm     Humidity % 0 mm
00:00 -11.3 °C -12.1 °C 34716.7 hPa North 10.3 km/h 10.3 km/h 91 % 0 mm
00:05 -11.3 °C -12.1 °C 34716.7 hPa North 10.3 km/h 10.3 km/h 91 % 0 mm
00:06 -11.3 °C -12.1 °C 34716.7 hPa North 9 km/h 9 km/h 91 % 0 mm
00:07 -11.3 °C -12.1 °C 34716.7 hPa North 9 km/h 9 km/h 91 % 0 mm
00:12 -11.3 °C -12.1 °C 34716.7 hPa North 9 km/h 9 km/h 92 % 0 mm
00:13 -11.3 °C -12.1 °C 34716.7 hPa North 9 km/h 9 km/h 92 % 0 mm
00:15 -11.3 °C -12.1 °C 34716.7 hPa North 5.1 km/h 10.3 km/h 92 % 0 mm
00:18 -11.3 °C -12 °C 34716.7 hPa North 9 km/h 9 km/h 92 % 0 mm
00:23 -11.3 °C -12 °C 34716.7 hPa Calm     92 % 0 mm
00:24 -11.3 °C -12 °C 34716.7 hPa North 7.7 km/h 7.7 km/h 92 % 0 mm
00:29 -11.4 °C -12.2 °C 34716.7 hPa North 11.9 km/h 11.9 km/h 91 % 0 mm
00:34 -11.4 °C -12.1 °C 34716.7 hPa North 11.9 km/h 11.9 km/h 92 % 0 mm
00:36 -11.4 °C -12.2 °C 34703.1 hPa North 9 km/h 9 km/h 92 % 0 mm
00:37 -11.4 °C -12.2 °C 34716.7 hPa North 9 km/h 9 km/h 92 % 0 mm
00:41 -11.5 °C -12.2 °C 34716.7 hPa North 9 km/h 9 km/h 92 % 0 mm
00:45 -11.5 °C -12.2 °C 34716.7 hPa North 9 km/h 9 km/h 92 % 0 mm
00:46 -11.5 °C -12.2 °C 34703.1 hPa North 9 km/h 9 km/h 92 % 0 mm
00:49 -11.5 °C -12.2 °C 34703.1 hPa North 10.3 km/h 10.3 km/h 92 % 0 mm
00:54 -11.5 °C -12.2 °C 34703.1 hPa North 10.3 km/h 10.3 km/h 92 % 0 mm
00:59 -11.6 °C -12.3 °C 34703.1 hPa North 15 km/h 15 km/h 92 % 0 mm
01:00 -11.6 °C -12.3 °C 34703.1 hPa North 15 km/h 15 km/h 92 % 0 mm
01:01 -11.6 °C -12.3 °C 34703.1 hPa North 15 km/h 15 km/h 92 % 0 mm
01:05 -11.6 °C -12.3 °C 34703.1 hPa North 17.9 km/h 17.9 km/h 92 % 0 mm
01:10 -11.6 °C -12.3 °C 34703.1 hPa North 7.7 km/h 18.2 km/h 92 % 0 mm
01:15 -11.6 °C -12.3 °C 34703.1 hPa North 15 km/h 15 km/h 92 % 0 mm
01:20 -11.5 °C -12.2 °C 34703.1 hPa North 11.9 km/h 11.9 km/h 92 % 0 mm
01:22 -11.5 °C -12.1 °C 34703.1 hPa North 15 km/h 15 km/h 93 % 0 mm
01:27 -11.5 °C -12.2 °C 34703.1 hPa North 10.3 km/h 10.3 km/h 92 % 0 mm
01:32 -11.5 °C -12.2 °C 34693 hPa North 11.9 km/h 11.9 km/h 92 % 0 mm
01:34 -11.5 °C -12.2 °C 34693 hPa North 11.9 km/h 11.9 km/h 92 % 0 mm
01:39 -11.5 °C -12.2 °C 34693 hPa North 15 km/h 15 km/h 92 % 0 mm
01:41 -11.5 °C -12.2 °C 34693 hPa North 15 km/h 15 km/h 92 % 0 mm
01:45 -11.5 °C -12.2 °C 34693 hPa North 15 km/h 15 km/h 92 % 7.62 mm
01:46 -11.5 °C -12.2 °C 34693 hPa NNW 18.2 km/h 18.2 km/h 92 % 7.62 mm
01:51 -11.5 °C -12.2 °C 34693 hPa North 11.9 km/h 11.9 km/h 92 % 7.62 mm
01:53 -11.5 °C -12.2 °C 34693 hPa North 15.6 km/h 15.6 km/h 92 % 7.62 mm
01:56 -11.5 °C -12.1 °C 34693 hPa North 15 km/h 15 km/h 93 % 7.62 mm
02:00 -11.5 °C -12.1 °C 34693 hPa North 15.6 km/h 15.6 km/h 93 % 7.62 mm
02:01 -11.5 °C -12.1 °C 34693 hPa North 15 km/h 15 km/h 93 % 7.62 mm
02:05 -11.4 °C -12.1 °C 34693 hPa North 9 km/h 9 km/h 93 % 7.62 mm
02:07 -11.4 °C -12.1 °C 34693 hPa North 9 km/h 9 km/h 93 % 7.62 mm
02:12 -11.4 °C -12 °C 34693 hPa NNW 9 km/h 9 km/h 93 % 7.62 mm
02:14 -11.3 °C -12 °C 34693 hPa NNW 10.3 km/h 10.3 km/h 93 % 7.62 mm
02:16 -11.3 °C -11.9 °C 34693 hPa NNW 15 km/h 15 km/h 93 % 7.62 mm
02:21 -11.3 °C -11.9 °C 34682.8 hPa NNW 9 km/h 9 km/h 93 % 7.62 mm
02:26 -11.3 °C -11.9 °C 34682.8 hPa NNW 9 km/h 9 km/h 93 % 7.62 mm
02:28 -11.3 °C -11.9 °C 34682.8 hPa NNW 9 km/h 9 km/h 93 % 7.62 mm
02:31 -11.3 °C -11.9 °C 34682.8 hPa NNW 9 km/h 9 km/h 93 % 7.62 mm
02:34 -11.3 °C -11.9 °C 34682.8 hPa NNW 9 km/h 9 km/h 93 % 7.62 mm
02:35 -11.3 °C -11.9 °C 34682.8 hPa NNW 9 km/h 9 km/h 93 % 7.62 mm
02:39 -11.2 °C -11.8 °C 34682.8 hPa NNW 10.3 km/h 10.3 km/h 93 % 7.62 mm
02:42 -11.2 °C -11.8 °C 34682.8 hPa NNW 11.9 km/h 11.9 km/h 93 % 7.62 mm
02:45 -11.3 °C -12 °C 34682.8 hPa North 15 km/h 15 km/h 92 % 0 mm
02:50 -11.4 °C -12.1 °C 34682.8 hPa North 9 km/h 9 km/h 92 % 0 mm
02:51 -11.4 °C -12.1 °C 34682.8 hPa North 9 km/h 9 km/h 92 % 0 mm
02:55 -11.4 °C -12 °C 34682.8 hPa North 9 km/h 10.3 km/h 93 % 0 mm
02:58 -11.4 °C -12.1 °C 34682.8 hPa NNE 11.9 km/h 11.9 km/h 93 % 0 mm
03:01 -11.4 °C -12.1 °C 34682.8 hPa NNE 9 km/h 9 km/h 93 % 0 mm
03:06 -11.5 °C -12.1 °C 34682.8 hPa NNE 9 km/h 9 km/h 93 % 0 mm
03:07 -11.4 °C -12.1 °C 34682.8 hPa NNE 9 km/h 9 km/h 93 % 0 mm
03:11 -11.4 °C -12.1 °C 34682.8 hPa North 9 km/h 9 km/h 93 % 0 mm
03:13 -11.4 °C -12.1 °C 34682.8 hPa North 10.3 km/h 10.3 km/h 93 % 0 mm
03:18 -11.4 °C -12.1 °C 34682.8 hPa North 9 km/h 9 km/h 93 % 0 mm
03:22 -11.4 °C -12 °C 34682.8 hPa North 17.9 km/h 17.9 km/h 93 % 0 mm
03:24 -11.4 °C -12.1 °C 34682.8 hPa North 15.6 km/h 15.6 km/h 93 % 0 mm
03:27 -11.4 °C -12.1 °C 34682.8 hPa North 15 km/h 15 km/h 93 % 0 mm
03:32 -11.4 °C -12.1 °C 34682.8 hPa North 11.9 km/h 11.9 km/h 93 % 0 mm
03:34 -11.4 °C -12.1 °C 34682.8 hPa NNW 9 km/h 9 km/h 93 % 0 mm
03:37 -11.5 °C -12.1 °C 34682.8 hPa NNW 12.9 km/h 12.9 km/h 93 % 0 mm
03:42 -11.5 °C -12.1 °C 34682.8 hPa North 15 km/h 15 km/h 93 % 0 mm
03:44 -11.5 °C -12.1 °C 34669.3 hPa NNE 15 km/h 15 km/h 93 % 0 mm
03:49 -11.5 °C -12.1 °C 34669.3 hPa North 15 km/h 15 km/h 93 % 0 mm
03:51 -11.5 °C -12.1 °C 34669.3 hPa North 15.6 km/h 15.6 km/h 93 % 0 mm
03:56 -11.4 °C -12.1 °C 34669.3 hPa NNW 11.9 km/h 11.9 km/h 93 % 0 mm
03:58 -11.4 °C -12.1 °C 34669.3 hPa NNW 11.9 km/h 11.9 km/h 93 % 0 mm
04:02 -11.3 °C -12 °C 34669.3 hPa NNW 12.9 km/h 12.9 km/h 93 % 0 mm
04:03 -11.3 °C -11.9 °C 34669.3 hPa NNW 15 km/h 15 km/h 93 % 0 mm
04:04 -11.3 °C -11.9 °C 34669.3 hPa NW 15 km/h 15 km/h 93 % 0 mm
04:08 -11.2 °C -11.8 °C 34669.3 hPa NW 11.9 km/h 11.9 km/h 93 % 0 mm
04:14 -11.2 °C -11.8 °C 34669.3 hPa NW 18.2 km/h 18.2 km/h 93 % 0 mm
04:18 -11.1 °C -11.7 °C 34659.1 hPa WNW 18.2 km/h 18.2 km/h 93 % 0 mm
04:23 -10.9 °C -11.5 °C 34659.1 hPa West 26.9 km/h 26.9 km/h 93 % 0 mm
04:24 -10.9 °C -11.5 °C 34659.1 hPa West 26.9 km/h 26.9 km/h 93 % 0 mm
04:29 -10.7 °C -11.3 °C 34659.1 hPa West 20.9 km/h 20.9 km/h 93 % 0 mm
04:30 -10.7 °C -11.3 °C 34659.1 hPa West 15.6 km/h 31.1 km/h 93 % 0 mm
04:35 -10.6 °C -11.2 °C 34659.1 hPa West 18.2 km/h 18.2 km/h 93 % 0 mm
04:39 -10.6 °C -11.2 °C 34659.1 hPa West 17.9 km/h 17.9 km/h 93 % 0 mm
04:41 -10.6 °C -11.2 °C 34659.1 hPa West 15.6 km/h 15.6 km/h 93 % 0 mm
04:45 -10.5 °C -11.2 °C 34659.1 hPa West 20.9 km/h 20.9 km/h 92 % 0 mm
04:47 -10.5 °C -11.2 °C 34659.1 hPa WNW 20.9 km/h 20.9 km/h 92 % 0 mm
04:51 -10.5 °C -11.2 °C 34659.1 hPa West 23.8 km/h 23.8 km/h 92 % 0 mm
04:53 -10.5 °C -11.2 °C 34659.1 hPa WNW 17.9 km/h 17.9 km/h 92 % 0 mm
04:56 -10.5 °C -11.3 °C 34659.1 hPa WNW 11.9 km/h 11.9 km/h 91 % 0 mm
04:58 -10.5 °C -11.3 °C 34659.1 hPa WNW 12.9 km/h 12.9 km/h 91 % 0 mm
05:03 -10.4 °C -11.3 °C 34659.1 hPa WNW 11.9 km/h 11.9 km/h 91 % 0 mm
05:04 -10.4 °C -11.3 °C 34659.1 hPa WNW 11.9 km/h 11.9 km/h 91 % 0 mm
05:05 -10.4 °C -11.3 °C 34659.1 hPa WNW 11.9 km/h 11.9 km/h 91 % 0 mm
05:09 -10.4 °C -11.3 °C 34659.1 hPa WNW 9 km/h 9 km/h 90 % 0 mm
05:11 -10.4 °C -11.3 °C 34659.1 hPa WNW 9 km/h 9 km/h 90 % 0 mm
05:15 -10.4 °C -11.3 °C 34659.1 hPa WNW 10.3 km/h 10.3 km/h 90 % 0 mm
05:17 -10.4 °C -11.3 °C 34659.1 hPa WNW 12.9 km/h 12.9 km/h 90 % 0 mm
05:21 -10.4 °C -11.4 °C 34659.1 hPa WNW 9 km/h 9 km/h 89 % 0 mm
05:26 -10.4 °C -11.4 °C 34645.6 hPa WNW 11.9 km/h 11.9 km/h 89 % 0 mm
05:28 -10.4 °C -11.5 °C 34645.6 hPa WNW 9 km/h 9 km/h 88 % 0 mm
05:32 -10.4 °C -11.5 °C 34645.6 hPa WNW 11.9 km/h 11.9 km/h 88 % 0 mm
05:36 -10.4 °C -11.6 °C 34645.6 hPa WNW 9 km/h 9 km/h 87 % 0 mm
05:37 -10.4 °C -11.6 °C 34645.6 hPa WNW 9 km/h 9 km/h 87 % 0 mm
05:42 -10.3 °C -11.5 °C 34645.6 hPa WNW 10.3 km/h 10.3 km/h 87 % 0 mm
05:43 -10.3 °C -11.4 °C 34645.6 hPa WNW 15 km/h 15 km/h 87 % 0 mm
05:48 -10.2 °C -11.4 °C 34645.6 hPa West 20.9 km/h 20.9 km/h 87 % 0 mm
05:49 -10.2 °C -11.3 °C 34645.6 hPa West 26.9 km/h 26.9 km/h 87 % 0 mm
05:54 -9.9 °C -11.2 °C 34645.6 hPa West 29.8 km/h 29.8 km/h 87 % 0 mm
05:59 -9.8 °C -11.1 °C 34645.6 hPa WSW 29.8 km/h 29.8 km/h 86 % 0 mm
06:00 -9.8 °C -11.1 °C 34645.6 hPa West 29.8 km/h 29.8 km/h 86 % 0 mm
06:01 -9.8 °C -11.1 °C 34645.6 hPa West 32.8 km/h 32.8 km/h 86 % 0 mm
06:05 -9.8 °C -11.1 °C 34645.6 hPa WNW 35.7 km/h 35.7 km/h 86 % 0 mm
06:07 -9.7 °C -11.1 °C 34645.6 hPa West 44.7 km/h 44.7 km/h 85 % 0 mm
06:12 -9.7 °C -11.2 °C 34645.6 hPa WSW 35.7 km/h 35.7 km/h 84 % 0 mm
06:14 -9.7 °C -11.3 °C 34645.6 hPa WSW 35.7 km/h 35.7 km/h 83 % 0 mm
06:18 -9.7 °C -11.3 °C 34635.4 hPa West 41.7 km/h 41.7 km/h 82 % 0 mm
06:23 -9.6 °C -11.4 °C 34645.6 hPa West 23.8 km/h 23.8 km/h 81 % 0 mm
06:28 -9.6 °C -11.4 °C 34645.6 hPa West 29.8 km/h 29.8 km/h 81 % 0 mm
06:29 -9.6 °C -11.4 °C 34645.6 hPa WNW 29.8 km/h 29.8 km/h 81 % 0 mm
06:34 -9.7 °C -11.5 °C 34645.6 hPa West 20.9 km/h 20.9 km/h 81 % 0 mm
06:36 -9.7 °C -11.5 °C 34645.6 hPa WNW 20.9 km/h 20.9 km/h 81 % 0 mm
06:40 -9.7 °C -11.5 °C 34645.6 hPa WNW 15 km/h 15 km/h 81 % 0 mm
06:45 -9.8 °C -11.6 °C 34645.6 hPa West 18.2 km/h 18.2 km/h 81 % 0 mm
06:46 -9.8 °C -11.6 °C 34645.6 hPa West 18.2 km/h 18.2 km/h 81 % 0 mm
06:49 -9.8 °C -11.5 °C 34645.6 hPa WSW 20.9 km/h 20.9 km/h 82 % 0 mm
06:52 -9.8 °C -11.5 °C 34645.6 hPa SW 26.9 km/h 26.9 km/h 82 % 0 mm
06:57 -9.7 °C -11.4 °C 34645.6 hPa West 26.9 km/h 26.9 km/h 82 % 0 mm
06:59 -9.6 °C -11.3 °C 34645.6 hPa WSW 26.9 km/h 26.9 km/h 82 % 0 mm
07:01 -9.6 °C -11.3 °C 34645.6 hPa West 29.8 km/h 29.8 km/h 82 % 0 mm
07:05 -9.6 °C -11.3 °C 34659.1 hPa WSW 26.9 km/h 26.9 km/h 82 % 0 mm
07:10 -9.6 °C -11.3 °C 34659.1 hPa WNW 15 km/h 15 km/h 82 % 0 mm
07:12 -9.6 °C -11.3 °C 34659.1 hPa West 23.8 km/h 23.8 km/h 82 % 0 mm
07:17 -9.6 °C -11.2 °C 34659.1 hPa WNW 20.9 km/h 20.9 km/h 83 % 0 mm
07:18 -9.6 °C -11.2 °C 34659.1 hPa West 20.9 km/h 20.9 km/h 83 % 0 mm
07:23 -9.7 °C -11.2 °C 34659.1 hPa West 20.9 km/h 20.9 km/h 83 % 0 mm
07:26 -9.7 °C -11.2 °C 34659.1 hPa WNW 15.6 km/h 15.6 km/h 84 % 0 mm
07:30 -9.7 °C -11.2 °C 34659.1 hPa WNW 23.8 km/h 23.8 km/h 84 % 0 mm
07:35 -9.7 °C -11.2 °C 34659.1 hPa West 29.8 km/h 29.8 km/h 84 % 0 mm
07:40 -9.7 °C -11.1 °C 34659.1 hPa WSW 26.9 km/h 26.9 km/h 85 % 7.62 mm
07:41 -9.7 °C -11.1 °C 34659.1 hPa WSW 26.9 km/h 26.9 km/h 85 % 7.62 mm
07:46 -9.7 °C -11 °C 34659.1 hPa WSW 29.8 km/h 29.8 km/h 86 % 7.62 mm
07:51 -9.7 °C -11 °C 34659.1 hPa West 33.6 km/h 33.6 km/h 86 % 7.62 mm
07:52 -9.7 °C -11 °C 34659.1 hPa WSW 29.8 km/h 29.8 km/h 86 % 7.62 mm
07:54 -9.7 °C -10.9 °C 34659.1 hPa West 32.8 km/h 32.8 km/h 87 % 7.62 mm
07:58 -9.8 °C -10.9 °C 34659.1 hPa West 29.8 km/h 29.8 km/h 87 % 7.62 mm
08:03 -9.8 °C -10.9 °C 34659.1 hPa West 17.9 km/h 17.9 km/h 88 % 7.62 mm
08:08 -9.8 °C -10.9 °C 34659.1 hPa West 23.8 km/h 23.8 km/h 88 % 7.62 mm
08:13 -9.9 °C -11 °C 34659.1 hPa West 11.9 km/h 11.9 km/h 88 % 7.62 mm
08:14 -9.9 °C -11 °C 34659.1 hPa West 12.9 km/h 12.9 km/h 88 % 7.62 mm
08:19 -9.9 °C -10.9 °C 34659.1 hPa West 15 km/h 15 km/h 89 % 7.62 mm
08:20 -9.9 °C -10.9 °C 34659.1 hPa WSW 15.6 km/h 15.6 km/h 89 % 7.62 mm
08:21 -9.9 °C -10.9 °C 34659.1 hPa West 17.9 km/h 17.9 km/h 89 % 7.62 mm
08:26 -9.9 °C -10.9 °C 34659.1 hPa West 20.9 km/h 20.9 km/h 89 % 7.62 mm
08:30 -9.9 °C -10.8 °C 34659.1 hPa WSW 25.9 km/h 25.9 km/h 90 % 7.62 mm
08:35 -9.9 °C -10.9 °C 34659.1 hPa WSW 29.8 km/h 29.8 km/h 90 % 7.62 mm
08:37 -9.9 °C -10.9 °C 34659.1 hPa SW 28.5 km/h 28.5 km/h 90 % 0 mm
08:40 -9.9 °C -10.9 °C 34645.6 hPa WSW 29.8 km/h 29.8 km/h 90 % 0 mm
08:44 -9.9 °C -10.8 °C 34645.6 hPa WSW 29.8 km/h 29.8 km/h 91 % 7.62 mm
08:46 -10 °C -10.8 °C 34645.6 hPa West 29.8 km/h 29.8 km/h 91 % 7.62 mm
08:51 -10.1 °C -10.8 °C 34645.6 hPa WSW 25.9 km/h 25.9 km/h 91 % 7.62 mm
08:52 -10.1 °C -10.8 °C 34645.6 hPa West 26.9 km/h 26.9 km/h 91 % 7.62 mm
08:57 -10 °C -10.8 °C 34645.6 hPa West 29.8 km/h 29.8 km/h 91 % 12.7 mm
09:02 -10 °C -10.8 °C 34645.6 hPa WSW 29.8 km/h 29.8 km/h 91 % 12.7 mm
09:06 -9.9 °C -10.7 °C 34645.6 hPa WSW 29.8 km/h 29.8 km/h 92 % 12.7 mm
09:10 -9.9 °C -10.8 °C 34645.6 hPa West 38.8 km/h 38.8 km/h 91 % 12.7 mm
09:11 -10 °C -10.8 °C 34645.6 hPa WSW 38.8 km/h 38.8 km/h 91 % 12.7 mm
09:16 -10 °C -10.7 °C 34645.6 hPa WSW 26.9 km/h 26.9 km/h 92 % 12.7 mm
09:17 -9.9 °C -10.7 °C 34645.6 hPa West 25.9 km/h 25.9 km/h 92 % 12.7 mm
09:18 -9.9 °C -10.7 °C 34645.6 hPa WSW 23.8 km/h 23.8 km/h 92 % 12.7 mm
09:23 -10 °C -10.7 °C 34645.6 hPa West 29.8 km/h 29.8 km/h 92 % 20.32 mm
09:24 -10 °C -10.7 °C 34645.6 hPa West 41.7 km/h 41.7 km/h 92 % 20.32 mm
09:29 -10 °C -10.7 °C 34645.6 hPa WSW 28.5 km/h 28.5 km/h 92 % 20.32 mm
09:33 -10 °C -10.7 °C 34635.4 hPa West 33.6 km/h 33.6 km/h 92 % 20.32 mm
09:35 -10.1 °C -10.7 °C 34645.6 hPa West 29.8 km/h 29.8 km/h 92 % 20.32 mm
09:40 -10 °C -10.7 °C 34635.4 hPa West 35.7 km/h 35.7 km/h 92 % 20.32 mm
09:45 -10 °C -10.7 °C 34645.6 hPa West 38.8 km/h 38.8 km/h 92 % 12.7 mm
09:48 -9.9 °C -10.7 °C 34635.4 hPa WSW 38.8 km/h 38.8 km/h 92 % 12.7 mm
09:50 -9.9 °C -10.7 °C 34645.6 hPa West 26.9 km/h 26.9 km/h 92 % 12.7 mm
09:55 -9.9 °C -10.7 °C 34645.6 hPa WSW 31.1 km/h 31.1 km/h 92 % 7.62 mm
09:57 -9.9 °C -10.6 °C 34635.4 hPa West 29.8 km/h 29.8 km/h 92 % 7.62 mm
10:02 -9.9 °C -10.7 °C 34645.6 hPa NW 20.9 km/h 20.9 km/h 92 % 7.62 mm
10:03 -9.9 °C -10.7 °C 34635.4 hPa WNW 15 km/h 15 km/h 92 % 7.62 mm
10:07 -9.9 °C -10.7 °C 34635.4 hPa West 15.6 km/h 15.6 km/h 92 % 7.62 mm
10:12 -9.9 °C -10.7 °C 34635.4 hPa West 26.9 km/h 26.9 km/h 92 % 7.62 mm
10:13 -9.9 °C -10.7 °C 34635.4 hPa West 23.8 km/h 23.8 km/h 92 % 7.62 mm
10:15 -9.9 °C -10.7 °C 34645.6 hPa West 9 km/h 9 km/h 92 % 7.62 mm
10:18 -9.9 °C -10.7 °C 34635.4 hPa WNW 15 km/h 15 km/h 92 % 7.62 mm
10:22 -9.9 °C -10.7 °C 34635.4 hPa West 20.8 km/h 20.8 km/h 92 % 0 mm
10:25 -9.9 °C -10.7 °C 34635.4 hPa West 17.9 km/h 17.9 km/h 92 % 0 mm
10:29 -9.9 °C -10.6 °C 34635.4 hPa WSW 28.5 km/h 28.5 km/h 92 % 0 mm
10:30 -9.9 °C -10.6 °C 34645.6 hPa WSW 32.8 km/h 32.8 km/h 92 % 0 mm
10:35 -9.8 °C -10.4 °C 34645.6 hPa West 29.8 km/h 29.8 km/h 93 % 0 mm
10:36 -9.8 °C -10.4 °C 34645.6 hPa West 29.8 km/h 29.8 km/h 93 % 0 mm
10:41 -9.8 °C -10.4 °C 34645.6 hPa West 17.9 km/h 17.9 km/h 93 % 0 mm
10:42 -9.8 °C -10.4 °C 34645.6 hPa WSW 17.9 km/h 17.9 km/h 93 % 0 mm
10:43 -9.8 °C -10.4 °C 34645.6 hPa WNW 20.9 km/h 20.9 km/h 93 % 0 mm
10:48 -9.8 °C -10.4 °C 34645.6 hPa West 31.1 km/h 31.1 km/h 93 % 0 mm
10:51 -9.8 °C -10.4 °C 34645.6 hPa WNW 20.9 km/h 20.9 km/h 93 % 0 mm
10:56 -9.8 °C -10.4 °C 34645.6 hPa WSW 18.2 km/h 18.2 km/h 93 % 0 mm
10:58 -9.8 °C -10.4 °C 34645.6 hPa West 9 km/h 9 km/h 93 % 0 mm
11:01 -9.8 °C -10.4 °C 34645.6 hPa NW 20.9 km/h 20.9 km/h 93 % 0 mm
11:04 -9.8 °C -10.4 °C 34645.6 hPa WSW 17.9 km/h 17.9 km/h 93 % 0 mm
11:07 -9.8 °C -10.4 °C 34645.6 hPa WNW 17.9 km/h 17.9 km/h 93 % 0 mm
11:12 -9.8 °C -10.4 °C 34645.6 hPa West 20.9 km/h 20.9 km/h 93 % 0 mm
11:13 -9.8 °C -10.4 °C 34645.6 hPa West 20.9 km/h 20.9 km/h 93 % 0 mm
11:14 -9.8 °C -10.4 °C 34645.6 hPa West 20.9 km/h 20.9 km/h 93 % 0 mm
11:18 -9.8 °C -10.4 °C 34645.6 hPa West 9 km/h 9 km/h 93 % 0 mm
11:19 -9.7 °C -10.3 °C 34645.6 hPa West 11.9 km/h 11.9 km/h 93 % 0 mm
11:25 -9.7 °C -10.3 °C 34635.4 hPa WNW 26.9 km/h 26.9 km/h 93 % 0 mm
11:30 -9.6 °C -10.2 °C 34645.6 hPa WNW 15.6 km/h 25.9 km/h 93 % 0 mm
11:34 -9.6 °C -10.2 °C 34645.6 hPa WNW 29.8 km/h 29.8 km/h 93 % 0 mm
11:36 -9.6 °C -10.2 °C 34645.6 hPa West 15.6 km/h 15.6 km/h 93 % 0 mm
11:41 -9.5 °C -10.2 °C 34645.6 hPa West 26.9 km/h 26.9 km/h 92 % 0 mm
11:46 -9.4 °C -10.2 °C 34645.6 hPa WSW 26.9 km/h 26.9 km/h 92 % 0 mm
11:48 -9.4 °C -10.1 °C 34645.6 hPa West 23.8 km/h 23.8 km/h 92 % 0 mm
11:53 -9.3 °C -10.1 °C 34645.6 hPa West 29.8 km/h 29.8 km/h 91 % 0 mm
11:54 -9.3 °C -10.1 °C 34635.4 hPa WSW 29.8 km/h 29.8 km/h 91 % 0 mm
11:59 -9.2 °C -10.1 °C 34635.4 hPa WSW 35.7 km/h 35.7 km/h 91 % 0 mm
12:02 -9.2 °C -10 °C 34635.4 hPa WSW 35.7 km/h 35.7 km/h 91 % 0 mm
12:05 -9.2 °C -10.1 °C 34635.4 hPa West 50.7 km/h 50.7 km/h 90 % 0 mm
12:06 -9.1 °C -9.9 °C 34635.4 hPa West 44.1 km/h 44.1 km/h 91 % 0 mm
12:09 -9.1 °C -10 °C 34635.4 hPa West 44.7 km/h 44.7 km/h 90 % 0 mm
12:11 -9.1 °C -9.9 °C 34635.4 hPa West 35.7 km/h 35.7 km/h 90 % 0 mm
12:16 -9 °C -9.9 °C 34625.2 hPa WSW 29.8 km/h 29.8 km/h 90 % 0 mm
12:22 -8.8 °C -9.9 °C 34625.2 hPa West 35.7 km/h 35.7 km/h 88 % 0 mm
12:27 -8.7 °C -10.1 °C 34625.2 hPa West 41.7 km/h 41.7 km/h 86 % 0 mm
12:30 -8.7 °C -10.1 °C 34625.2 hPa WSW 47.6 km/h 47.6 km/h 85 % 0 mm
12:32 -8.7 °C -10.2 °C 34625.2 hPa West 41.7 km/h 41.7 km/h 84 % 0 mm
12:37 -8.6 °C -10.3 °C 34625.2 hPa SW 44.7 km/h 44.7 km/h 82 % 0 mm
12:42 -8.4 °C -10.3 °C 34625.2 hPa WSW 38.8 km/h 38.8 km/h 81 % 0 mm
12:45 -8.4 °C -10.3 °C 34625.2 hPa WSW 50.7 km/h 50.7 km/h 81 % 0 mm
12:47 -8.5 °C -10.3 °C 34625.2 hPa West 50.7 km/h 50.7 km/h 81 % 0 mm
12:51 -8.4 °C -10.4 °C 34611.7 hPa West 47.6 km/h 47.6 km/h 80 % 0 mm
12:52 -8.4 °C -10.4 °C 34611.7 hPa West 38.8 km/h 38.8 km/h 80 % 0 mm
12:53 -8.4 °C -10.4 °C 34611.7 hPa West 41.7 km/h 41.7 km/h 80 % 0 mm
12:56 -8.5 °C -10.4 °C 34611.7 hPa West 41.7 km/h 41.7 km/h 80 % 0 mm
13:01 -8.5 °C -10.5 °C 34611.7 hPa West 29.8 km/h 29.8 km/h 79 % 0 mm
13:03 -8.4 °C -10.5 °C 34611.7 hPa West 23.8 km/h 23.8 km/h 79 % 0 mm
13:08 -8.3 °C -10.8 °C 34601.5 hPa West 20.8 km/h 20.8 km/h 75 % 0 mm
13:09 -8.3 °C -10.8 °C 34601.5 hPa West 23.8 km/h 23.8 km/h 75 % 0 mm
13:10 -8.3 °C -10.9 °C 34601.5 hPa WNW 23.8 km/h 23.8 km/h 74 % 0 mm
13:15 -8.2 °C -11 °C 34601.5 hPa WNW 18.2 km/h 18.2 km/h 72 % 0 mm
13:20 -8.1 °C -11.3 °C 34601.5 hPa WNW 15 km/h 15 km/h 69 % 0 mm
13:21 -8.1 °C -11.3 °C 34601.5 hPa WNW 15.6 km/h 15.6 km/h 69 % 0 mm
13:26 -8.1 °C -11.4 °C 34601.5 hPa WNW 11.9 km/h 11.9 km/h 68 % 0 mm
13:28 -8.1 °C -11.5 °C 34601.5 hPa WSW 12.9 km/h 12.9 km/h 67 % 0 mm
13:32 -8.1 °C -11.6 °C 34601.5 hPa West 17.9 km/h 17.9 km/h 66 % 0 mm
13:37 -8.1 °C -11.8 °C 34591.4 hPa West 20.9 km/h 20.9 km/h 65 % 0 mm
13:42 -8.1 °C -12.1 °C 34591.4 hPa WSW 29.8 km/h 29.8 km/h 63 % 0 mm
13:47 -8.1 °C -12.2 °C 34591.4 hPa WSW 32.8 km/h 32.8 km/h 62 % 0 mm
13:48 -8.1 °C -12.2 °C 34591.4 hPa WSW 32.8 km/h 32.8 km/h 62 % 0 mm
13:53 -8.1 °C -12.3 °C 34591.4 hPa WSW 32.8 km/h 32.8 km/h 61 % 0 mm
13:54 -8.1 °C -12.3 °C 34591.4 hPa WSW 29.8 km/h 29.8 km/h 61 % 0 mm
13:59 -8.1 °C -12.2 °C 34577.8 hPa SW 26.9 km/h 26.9 km/h 62 % 0 mm
14:00 -8.1 °C -12.2 °C 34577.8 hPa SW 26.9 km/h 26.9 km/h 62 % 0 mm
14:05 -8.1 °C -12.2 °C 34577.8 hPa WSW 23.8 km/h 23.8 km/h 62 % 0 mm
14:07 -8.1 °C -12.2 °C 34577.8 hPa SW 20.9 km/h 20.9 km/h 62 % 0 mm
14:12 -8.2 °C -12.2 °C 34577.8 hPa WSW 29.8 km/h 29.8 km/h 62 % 0 mm
14:14 -8.2 °C -12.3 °C 34577.8 hPa SW 23.8 km/h 23.8 km/h 62 % 0 mm
14:17 -8.2 °C -12.6 °C 34577.8 hPa SSW 17.9 km/h 17.9 km/h 60 % 0 mm
14:20 -8.2 °C -12.5 °C 34577.8 hPa SW 18.2 km/h 18.2 km/h 60 % 0 mm
14:22 -8.2 °C -12.5 °C 34577.8 hPa SW 26.9 km/h 26.9 km/h 60 % 0 mm
14:23 -8.2 °C -12.5 °C 34577.8 hPa WSW 26.9 km/h 26.9 km/h 60 % 0 mm
14:25 -8.1 °C -12.3 °C 34577.8 hPa SSW 23.8 km/h 23.8 km/h 61 % 0 mm
14:29 -8.1 °C -12.4 °C 34577.8 hPa WSW 20.9 km/h 20.9 km/h 60 % 0 mm
14:32 -8.1 °C -12.4 °C 34577.8 hPa WSW 20.8 km/h 20.8 km/h 60 % 0 mm
14:34 -8.2 °C -12.7 °C 34577.8 hPa West 23.8 km/h 23.8 km/h 59 % 0 mm
14:38 -8.2 °C -12.7 °C 34567.7 hPa West 3.1 km/h   59 % 0 mm
14:40 -8.1 °C -12.3 °C 34567.7 hPa Calm     61 % 0 mm
14:45 -8.1 °C -12.4 °C 34567.7 hPa WNW 12.9 km/h 12.9 km/h 60 % 0 mm
14:46 -8.1 °C -12.4 °C 34567.7 hPa WNW 12.9 km/h 12.9 km/h 60 % 0 mm
14:47 -8.2 °C -12.7 °C 34567.7 hPa WNW 15 km/h 15 km/h 59 % 0 mm
14:52 -8.2 °C -12.9 °C 34567.7 hPa WNW 6 km/h   57 % 0 mm
14:54 -8.2 °C -12.8 °C 34567.7 hPa Calm     58 % 0 mm
14:58 -8.2 °C -12.9 °C 34567.7 hPa NE 17.9 km/h 17.9 km/h 57 % 0 mm
15:00 -8.2 °C -13 °C 34567.7 hPa North 12.9 km/h 12.9 km/h 57 % 0 mm
15:05 -8.3 °C -13.2 °C 34567.7 hPa NNE 17.9 km/h 17.9 km/h 56 % 0 mm
15:10 -8.4 °C -13.2 °C 34567.7 hPa NNE 12.9 km/h 12.9 km/h 57 % 0 mm
15:15 -8.5 °C -13.4 °C 34567.7 hPa NW 20.9 km/h 20.9 km/h 56 % 0 mm
15:19 -8.5 °C -13.4 °C 34567.7 hPa East 12.9 km/h 12.9 km/h 56 % 0 mm
15:24 -8.5 °C -13.4 °C 34567.7 hPa WNW 17.9 km/h 17.9 km/h 56 % 0 mm
15:25 -8.5 °C -13.4 °C 34567.7 hPa WNW 17.9 km/h 17.9 km/h 56 % 0 mm
15:26 -8.5 °C -13.6 °C 34567.7 hPa WNW 15 km/h 15 km/h 55 % 0 mm
15:31 -8.5 °C -13.4 °C 34567.7 hPa SW 15 km/h 15 km/h 56 % 0 mm
15:32 -8.5 °C -13.4 °C 34567.7 hPa SW 15 km/h 15 km/h 56 % 0 mm
15:36 -8.5 °C -13.6 °C 34567.7 hPa WSW 20.9 km/h 20.9 km/h 55 % 0 mm
15:39 -8.5 °C -13.6 °C 34577.8 hPa West 12.9 km/h 12.9 km/h 55 % 0 mm
15:42 -8.5 °C -13.7 °C 34567.7 hPa SW 29.8 km/h 29.8 km/h 54 % 0 mm
15:46 -8.6 °C -13.6 °C 34567.7 hPa WNW 20.9 km/h 20.9 km/h 55 % 0 mm
15:49 -8.5 °C -13.6 °C 34567.7 hPa WSW 23.3 km/h 23.3 km/h 55 % 0 mm
15:52 -8.5 °C -13.7 °C 34567.7 hPa West 25.9 km/h 25.9 km/h 54 % 0 mm
15:57 -8.5 °C -13.7 °C 34577.8 hPa West 17.9 km/h 17.9 km/h 54 % 0 mm
16:00 -8.5 °C -13.7 °C 34567.7 hPa West 23.8 km/h 23.8 km/h 54 % 0 mm
16:05 -8.6 °C -14.1 °C 34567.7 hPa West 20.9 km/h 20.9 km/h 52 % 0 mm
16:06 -8.6 °C -14.1 °C 34567.7 hPa West 20.9 km/h 20.9 km/h 52 % 0 mm
16:07 -8.6 °C -14.1 °C 34567.7 hPa West 26.9 km/h 26.9 km/h 52 % 0 mm
16:12 -8.6 °C -13.9 °C 34567.7 hPa West 29.8 km/h 29.8 km/h 53 % 0 mm
16:17 -8.5 °C -13.8 °C 34554.1 hPa West 29.8 km/h 29.8 km/h 53 % 0 mm
16:18 -8.5 °C -14 °C 34567.7 hPa West 29.8 km/h 29.8 km/h 52 % 0 mm
16:23 -8.4 °C -14 °C 34554.1 hPa WNW 25.9 km/h 25.9 km/h 52 % 0 mm
16:28 -8.5 °C -14 °C 34554.1 hPa WNW 35.7 km/h 35.7 km/h 52 % 0 mm
16:29 -8.5 °C -14.2 °C 34554.1 hPa NW 35.7 km/h 35.7 km/h 51 % 0 mm
16:34 -8.6 °C -14.2 °C 34544 hPa WNW 38.8 km/h 38.8 km/h 51 % 0 mm
16:37 -8.6 °C -14.2 °C 34544 hPa NW 29.8 km/h 29.8 km/h 51 % 0 mm
16:39 -8.6 °C -14.1 °C 34544 hPa NW 29.8 km/h 29.8 km/h 52 % 0 mm
16:44 -8.6 °C -14.1 °C 34544 hPa WNW 33.6 km/h 33.6 km/h 52 % 0 mm
16:45 -8.6 °C -14.1 °C 34544 hPa NW 33.6 km/h 33.6 km/h 52 % 0 mm
16:49 -8.6 °C -14.1 °C 34544 hPa NW 20.9 km/h 20.9 km/h 52 % 0 mm
16:51 -8.6 °C -13.9 °C 34544 hPa NW 23.8 km/h 23.8 km/h 53 % 0 mm
16:57 -8.6 °C -14.2 °C 34544 hPa NW 23.8 km/h 23.8 km/h 51 % 0 mm
17:00 -8.6 °C -14.2 °C 34544 hPa NW 35.7 km/h 35.7 km/h 51 % 0 mm
17:02 -8.6 °C -14.2 °C 34544 hPa WNW 29.8 km/h 29.8 km/h 51 % 0 mm
17:07 -8.6 °C -14.1 °C 34554.1 hPa NW 23.8 km/h 23.8 km/h 52 % 0 mm
17:08 -8.6 °C -14.1 °C 34554.1 hPa NW 23.8 km/h 23.8 km/h 52 % 0 mm
17:10 -8.6 °C -14.1 °C 34554.1 hPa NW 26.9 km/h 26.9 km/h 52 % 0 mm
17:13 -8.6 °C -14.2 °C 34554.1 hPa NW 44.7 km/h 44.7 km/h 51 % 0 mm
17:18 -8.6 °C -14.1 °C 34554.1 hPa WNW 29.8 km/h 29.8 km/h 52 % 0 mm
17:19 -8.6 °C -14.1 °C 34554.1 hPa WNW 29.8 km/h 29.8 km/h 52 % 0 mm
17:24 -8.6 °C -14.1 °C 34554.1 hPa WNW 29.8 km/h 29.8 km/h 52 % 0 mm
17:25 -8.6 °C -14.1 °C 34554.1 hPa WNW 29.8 km/h 29.8 km/h 52 % 0 mm
17:30 -8.6 °C -14.2 °C 34544 hPa WNW 29.8 km/h 29.8 km/h 51 % 0 mm
17:32 -8.6 °C -14.2 °C 34544 hPa NW 29.8 km/h 29.8 km/h 51 % 0 mm
17:37 -8.7 °C -14.3 °C 34544 hPa NW 29.8 km/h 29.8 km/h 51 % 0 mm
17:38 -8.7 °C -14.3 °C 34544 hPa NW 25.9 km/h 25.9 km/h 51 % 0 mm
17:42 -8.7 °C -14.2 °C 34544 hPa NW 36.2 km/h 36.2 km/h 52 % 7.62 mm
17:47 -8.8 °C -14.3 °C 34544 hPa NNW 38.8 km/h 38.8 km/h 52 % 7.62 mm
17:48 -8.8 °C -14.3 °C 34544 hPa NW 38.8 km/h 38.8 km/h 52 % 7.62 mm
17:51 -8.8 °C -14.3 °C 34544 hPa NNW 25.9 km/h 25.9 km/h 52 % 7.62 mm
17:54 -8.8 °C -14.3 °C 34544 hPa NW 29.8 km/h 29.8 km/h 52 % 7.62 mm
17:57 -8.8 °C -14.2 °C 34544 hPa WNW 20.9 km/h 20.9 km/h 53 % 7.62 mm
18:01 -8.9 °C -14.2 °C 34544 hPa WNW 23.8 km/h 23.8 km/h 53 % 7.62 mm
18:06 -8.9 °C -14.2 °C 34544 hPa WNW 35.7 km/h 35.7 km/h 53 % 7.62 mm
18:07 -8.9 °C -14.4 °C 34544 hPa NW 29.8 km/h 29.8 km/h 52 % 7.62 mm
18:10 -8.9 °C -14.3 °C 34554.1 hPa NW 35.7 km/h 35.7 km/h 53 % 7.62 mm
18:13 -8.9 °C -14.3 °C 34554.1 hPa NW 29.8 km/h 29.8 km/h 53 % 7.62 mm
18:18 -9 °C -14.4 °C 34554.1 hPa NW 29.8 km/h 29.8 km/h 52 % 7.62 mm
18:21 -9 °C -14.3 °C 34554.1 hPa NW 26.9 km/h 26.9 km/h 53 % 7.62 mm
18:24 -9 °C -14.3 °C 34554.1 hPa NW 26.9 km/h 26.9 km/h 53 % 7.62 mm
18:27 -9 °C -14.3 °C 34554.1 hPa NW 31.1 km/h 31.1 km/h 53 % 7.62 mm
18:30 -9 °C -14.3 °C 34554.1 hPa NW 29.8 km/h 29.8 km/h 53 % 7.62 mm
18:35 -9 °C -14.5 °C 34554.1 hPa WNW 29.8 km/h 29.8 km/h 52 % 7.62 mm
18:37 -9 °C -14.5 °C 34554.1 hPa NNW 26.9 km/h 26.9 km/h 52 % 7.62 mm
18:40 -9 °C -14.5 °C 34554.1 hPa WNW 26.9 km/h 26.9 km/h 52 % 0 mm
18:42 -9 °C -14.5 °C 34554.1 hPa NW 29.8 km/h 29.8 km/h 52 % 0 mm
18:46 -9.1 °C -14.5 °C 34554.1 hPa NW 29.8 km/h 29.8 km/h 52 % 0 mm
18:48 -9.1 °C -14.5 °C 34554.1 hPa WNW 29.8 km/h 29.8 km/h 52 % 0 mm
18:53 -9.1 °C -14.5 °C 34554.1 hPa West 29.8 km/h 29.8 km/h 52 % 0 mm
18:58 -9.1 °C -14.3 °C 34554.1 hPa NW 29.8 km/h 29.8 km/h 53 % 0 mm
19:00 -9.1 °C -14.4 °C 34554.1 hPa WNW 20.9 km/h 20.9 km/h 53 % 0 mm
19:05 -9.1 °C -14.3 °C 34554.1 hPa NW 20.9 km/h 20.9 km/h 54 % 0 mm
19:06 -9.1 °C -14.3 °C 34554.1 hPa WNW 20.9 km/h 20.9 km/h 54 % 0 mm
19:09 -9.1 °C -14.3 °C 34554.1 hPa NW 29.8 km/h 29.8 km/h 54 % 0 mm
19:11 -9.1 °C -14.3 °C 34554.1 hPa WNW 29.8 km/h 29.8 km/h 54 % 0 mm
19:16 -9.1 °C -14.3 °C 34554.1 hPa WNW 29.8 km/h 29.8 km/h 54 % 0 mm
19:18 -9.2 °C -14.3 °C 34554.1 hPa NW 26.9 km/h 26.9 km/h 54 % 0 mm
19:21 -9.2 °C -14.3 °C 34544 hPa NW 35.7 km/h 35.7 km/h 54 % 0 mm
19:23 -9.2 °C -14.3 °C 34554.1 hPa NW 32.8 km/h 32.8 km/h 54 % 0 mm
19:27 -9.2 °C -14.2 °C 34554.1 hPa NNW 29.8 km/h 29.8 km/h 55 % 0 mm
19:29 -9.2 °C -14.2 °C 34554.1 hPa NW 29.8 km/h 29.8 km/h 55 % 0 mm
19:33 -9.2 °C -14.2 °C 34554.1 hPa NW 33.6 km/h 33.6 km/h 55 % 0 mm
19:38 -9.3 °C -14.3 °C 34554.1 hPa WNW 32.8 km/h 32.8 km/h 55 % 0 mm
19:39 -9.3 °C -14.3 °C 34554.1 hPa WNW 29.8 km/h 29.8 km/h 55 % 0 mm
19:41 -9.3 °C -14.3 °C 34554.1 hPa NW 15 km/h 15 km/h 55 % 0 mm
19:45 -9.3 °C -14.3 °C 34554.1 hPa NW 23.8 km/h 23.8 km/h 55 % 0 mm
19:50 -9.3 °C -14.3 °C 34554.1 hPa NW 29.8 km/h 29.8 km/h 55 % 0 mm
19:51 -9.3 °C -14.3 °C 34554.1 hPa NW 29.8 km/h 29.8 km/h 55 % 0 mm
19:54 -9.3 °C -14.3 °C 34554.1 hPa NW 23.8 km/h 23.8 km/h 55 % 0 mm
19:57 -9.3 °C -14.3 °C 34554.1 hPa NW 20.9 km/h 20.9 km/h 55 % 0 mm
20:01 -9.3 °C -14.3 °C 34554.1 hPa WNW 20.9 km/h 20.9 km/h 55 % 0 mm
20:03 -9.3 °C -14.3 °C 34554.1 hPa NW 23.8 km/h 23.8 km/h 55 % 0 mm
20:08 -9.3 °C -14.3 °C 34554.1 hPa NW 23.8 km/h 23.8 km/h 55 % 0 mm
20:10 -9.4 °C -14.4 °C 34554.1 hPa West 23.8 km/h 23.8 km/h 55 % 0 mm
20:15 -9.4 °C -14.4 °C 34554.1 hPa NW 20.8 km/h 20.8 km/h 55 % 0 mm
20:19 -9.4 °C -14.4 °C 34554.1 hPa WNW 29.8 km/h 29.8 km/h 55 % 0 mm
20:24 -9.4 °C -14.3 °C 34554.1 hPa WNW 12.9 km/h 12.9 km/h 56 % 0 mm
20:27 -9.4 °C -14.4 °C 34554.1 hPa NW 23.8 km/h 23.8 km/h 55 % 0 mm
20:32 -9.5 °C -14.4 °C 34567.7 hPa WNW 25.9 km/h 25.9 km/h 55 % 0 mm
20:34 -9.5 °C -14.4 °C 34567.7 hPa WNW 26.9 km/h 26.9 km/h 55 % 0 mm
20:39 -9.5 °C -14.3 °C 34577.8 hPa WNW 29.8 km/h 29.8 km/h 56 % 0 mm
20:40 -9.5 °C -14.3 °C 34577.8 hPa West 26.9 km/h 26.9 km/h 56 % 0 mm
20:43 -9.5 °C -14.3 °C 34577.8 hPa NW 32.8 km/h 32.8 km/h 56 % 0 mm
20:45 -9.5 °C -14.3 °C 34577.8 hPa WNW 23.8 km/h 23.8 km/h 56 % 0 mm
20:50 -9.5 °C -14.3 °C 34567.7 hPa West 47.6 km/h 47.6 km/h 56 % 0 mm
20:51 -9.5 °C -14.3 °C 34567.7 hPa West 47.6 km/h 47.6 km/h 56 % 0 mm
20:53 -9.5 °C -14.4 °C 34577.8 hPa West 50.7 km/h 50.7 km/h 55 % 0 mm
20:56 -9.5 °C -14.3 °C 34567.7 hPa West 29.8 km/h 29.8 km/h 56 % 0 mm
20:59 -9.5 °C -14.3 °C 34577.8 hPa West 31.1 km/h 31.1 km/h 56 % 0 mm
21:02 -9.5 °C -14.3 °C 34577.8 hPa WNW 38.8 km/h 38.8 km/h 56 % 0 mm
21:05 -9.5 °C -14.3 °C 34577.8 hPa West 18.2 km/h 38.8 km/h 56 % 0 mm
21:10 -9.6 °C -14.2 °C 34577.8 hPa NW 20.9 km/h 20.9 km/h 57 % 0 mm
21:12 -9.6 °C -14.3 °C 34577.8 hPa WNW 28.5 km/h 28.5 km/h 57 % 0 mm
21:16 -9.6 °C -14.1 °C 34577.8 hPa WNW 26.9 km/h 26.9 km/h 58 % 0 mm
21:18 -9.6 °C -14.1 °C 34577.8 hPa West 29.8 km/h 29.8 km/h 58 % 0 mm
21:23 -9.6 °C -14.1 °C 34577.8 hPa West 20.9 km/h 20.9 km/h 59 % 0 mm
21:24 -9.6 °C -14.1 °C 34577.8 hPa West 20.9 km/h 20.9 km/h 59 % 0 mm
21:29 -9.6 °C -14.1 °C 34577.8 hPa WNW 26.9 km/h 26.9 km/h 59 % 0 mm
21:30 -9.6 °C -13.9 °C 34591.4 hPa WNW 23.8 km/h 23.8 km/h 60 % 0 mm
21:32 -9.7 °C -13.9 °C 34577.8 hPa West 18.2 km/h 18.2 km/h 60 % 0 mm
21:37 -9.7 °C -13.8 °C 34567.7 hPa West 23.8 km/h 23.8 km/h 61 % 0 mm
21:38 -9.7 °C -13.8 °C 34567.7 hPa West 26.9 km/h 26.9 km/h 61 % 0 mm
21:43 -9.7 °C -13.8 °C 34567.7 hPa NW 29.8 km/h 29.8 km/h 61 % 0 mm
21:44 -9.7 °C -13.8 °C 34567.7 hPa WNW 11.9 km/h 11.9 km/h 61 % 0 mm
21:49 -9.7 °C -13.8 °C 34567.7 hPa West 15 km/h 15 km/h 61 % 0 mm
21:50 -9.7 °C -13.8 °C 34567.7 hPa West 15 km/h 15 km/h 61 % 0 mm
21:52 -9.7 °C -13.7 °C 34567.7 hPa West 11.9 km/h 11.9 km/h 62 % 0 mm
21:57 -9.7 °C -13.7 °C 34577.8 hPa West 26.9 km/h 26.9 km/h 62 % 0 mm
21:58 -9.7 °C -13.7 °C 34577.8 hPa WNW 29.8 km/h 29.8 km/h 62 % 0 mm
22:03 -9.6 °C -13.6 °C 34567.7 hPa NW 29.8 km/h 29.8 km/h 62 % 0 mm
22:04 -9.6 °C -13.6 °C 34567.7 hPa NW 51.8 km/h 51.8 km/h 62 % 0 mm
22:05 -9.6 °C -13.6 °C 34567.7 hPa NNW 36.2 km/h 36.2 km/h 62 % 0 mm
22:10 -9.5 °C -13.5 °C 34554.1 hPa WNW 35.7 km/h 35.7 km/h 62 % 0 mm
22:15 -9.5 °C -13.5 °C 34554.1 hPa NW 29.8 km/h 29.8 km/h 62 % 0 mm
22:16 -9.5 °C -13.5 °C 34554.1 hPa West 38.8 km/h 38.8 km/h 62 % 0 mm
22:20 -9.5 °C -13.5 °C 34554.1 hPa WNW 25.9 km/h 25.9 km/h 62 % 0 mm
22:21 -9.4 °C -13.4 °C 34554.1 hPa West 29.8 km/h 29.8 km/h 62 % 0 mm
22:26 -9.4 °C -13.4 °C 34544 hPa NW 44.7 km/h 44.7 km/h 62 % 0 mm
22:31 -9.4 °C -13.4 °C 34554.1 hPa WNW 41.7 km/h 41.7 km/h 62 % 0 mm
22:32 -9.4 °C -13.4 °C 34554.1 hPa WNW 44.1 km/h 44.1 km/h 62 % 0 mm
22:34 -9.4 °C -13.3 °C 34554.1 hPa WNW 47.6 km/h 47.6 km/h 63 % 0 mm
22:37 -9.4 °C -13.3 °C 34554.1 hPa NW 50.7 km/h 50.7 km/h 63 % 0 mm
22:42 -9.4 °C -13.3 °C 34554.1 hPa West 59.5 km/h 59.5 km/h 63 % 0 mm
22:47 -9.3 °C -13.2 °C 34554.1 hPa WSW 50.7 km/h 50.7 km/h 63 % 0 mm
22:50 -9.3 °C -13.3 °C 34554.1 hPa West 38.8 km/h 38.8 km/h 62 % 0 mm
22:52 -9.3 °C -13.3 °C 34554.1 hPa WNW 53.6 km/h 53.6 km/h 62 % 0 mm
22:57 -9.3 °C -13.3 °C 34567.7 hPa WNW 59.5 km/h 59.5 km/h 62 % 0 mm
22:58 -9.3 °C -13.3 °C 34554.1 hPa West 50.7 km/h 50.7 km/h 62 % 0 mm
23:03 -9.3 °C -13.2 °C 34554.1 hPa West 65.5 km/h 65.5 km/h 63 % 0 mm
23:09 -9.2 °C -13.1 °C 34554.1 hPa West 38.8 km/h 38.8 km/h 63 % 0 mm
23:10 -9.3 °C -13 °C 34554.1 hPa West 44.7 km/h 44.7 km/h 64 % 0 mm
23:14 -9.3 °C -13 °C 34554.1 hPa West 56.6 km/h 56.6 km/h 64 % 0 mm
23:19 -9.3 °C -13 °C 34554.1 hPa West 47.6 km/h 47.6 km/h 64 % 0 mm
23:20 -9.3 °C -13 °C 34554.1 hPa West 38.8 km/h 38.8 km/h 64 % 0 mm
23:21 -9.3 °C -13 °C 34554.1 hPa West 38.8 km/h 38.8 km/h 64 % 0 mm
23:26 -9.3 °C -12.8 °C 34554.1 hPa West 26.9 km/h 26.9 km/h 66 % 0 mm
23:31 -9.3 °C -12.9 °C 34554.1 hPa WNW 26.9 km/h 26.9 km/h 65 % 0 mm
23:33 -9.3 °C -12.9 °C 34554.1 hPa West 20.9 km/h 20.9 km/h 65 % 0 mm
23:37 -9.3 °C -13.1 °C 34554.1 hPa WNW 29.8 km/h 29.8 km/h 64 % 0 mm
23:42 -9.3 °C -13.1 °C 34554.1 hPa West 29.8 km/h 29.8 km/h 64 % 0 mm
23:43 -9.3 °C -13.1 °C 34554.1 hPa West 29.8 km/h 29.8 km/h 64 % 0 mm
23:46 -9.3 °C -13 °C 34554.1 hPa NW 17.9 km/h 17.9 km/h 64 % 0 mm
23:48 -9.3 °C -13 °C 34554.1 hPa NW 12.9 km/h 12.9 km/h 64 % 0 mm
23:53 -9.3 °C -13 °C 34554.1 hPa West 23.8 km/h 23.8 km/h 64 % 0 mm
23:56 -9.3 °C -12.7 °C 34544 hPa West 17.9 km/h 17.9 km/h 67 % 0 mm
23:58 -9.3 °C -12.4 °C 34544 hPa WSW 36.2 km/h 36.2 km/h 69 % 0 mm
Puerto Banus, Marbella
Elogios de Weather Underground - 2.5 mb

Guión original por  Jim McMurry - jmcmurry@mwt.net Adaptado para la plantilla por  Wim van der Kuil - Leuven-Template.eu

Usted encontrará nuestra información del tiempo también en:

Weather Underground

Iberian Peninsula Weather Network